createdAt,value
2023-04-06T00:01:06.144Z,27.30
2023-04-06T00:03:33.255Z,28.50
2023-04-06T00:06:00.772Z,28.70
2023-04-06T00:08:28.426Z,29.00
2023-04-06T00:10:55.688Z,29.50
2023-04-06T00:13:22.839Z,29.10
2023-04-06T00:15:49.796Z,29.00
2023-04-06T00:18:17.205Z,29.20
2023-04-06T00:20:44.398Z,28.90
2023-04-06T00:23:11.365Z,28.90
2023-04-06T00:25:38.363Z,28.90
2023-04-06T00:28:05.443Z,29.00
2023-04-06T00:30:32.460Z,29.60
2023-04-06T00:32:59.432Z,29.50
2023-04-06T00:35:26.588Z,29.30
2023-04-06T00:37:53.622Z,27.70
2023-04-06T00:40:20.728Z,26.50
2023-04-06T00:42:47.832Z,26.70
2023-04-06T00:45:15.028Z,26.00
2023-04-06T00:47:42.501Z,26.60
2023-04-06T00:50:09.874Z,27.30
2023-04-06T00:52:36.902Z,27.10
2023-04-06T00:55:05.022Z,28.00
2023-04-06T00:57:32.684Z,27.70
2023-04-06T00:59:59.893Z,28.40
2023-04-06T01:02:27.242Z,28.50
2023-04-06T01:04:55.725Z,28.80
2023-04-06T01:07:23.022Z,28.80
2023-04-06T01:09:50.017Z,28.70
2023-04-06T01:12:17.114Z,29.00
2023-04-06T01:14:44.169Z,29.10
2023-04-06T01:17:11.338Z,29.10
2023-04-06T01:19:38.399Z,29.20
2023-04-06T01:22:05.910Z,29.60
2023-04-06T01:24:33.365Z,29.00
2023-04-06T01:27:00.444Z,28.40
2023-04-06T01:29:27.618Z,28.60
2023-04-06T01:31:54.703Z,29.30
2023-04-06T01:34:21.831Z,29.00
2023-04-06T01:36:48.843Z,28.90
2023-04-06T01:39:15.830Z,28.70
2023-04-06T01:41:42.881Z,28.50
2023-04-06T01:44:09.854Z,28.50
2023-04-06T01:46:37.145Z,28.30
2023-04-06T01:49:04.310Z,28.00
2023-04-06T01:51:31.970Z,28.80
2023-04-06T01:53:58.987Z,28.90
2023-04-06T01:56:26.565Z,28.30
2023-04-06T01:58:53.555Z,28.80
2023-04-06T02:01:20.644Z,29.20
2023-04-06T02:03:47.820Z,28.90
2023-04-06T02:06:14.890Z,29.00
2023-04-06T02:08:41.997Z,28.70
2023-04-06T02:11:09.131Z,28.20
2023-04-06T02:13:36.256Z,27.90
2023-04-06T02:16:03.806Z,27.60
2023-04-06T02:18:34.770Z,27.40
2023-04-06T02:21:01.944Z,27.90
2023-04-06T02:23:28.933Z,27.80
2023-04-06T02:25:57.462Z,28.10
2023-04-06T02:28:24.702Z,27.60
2023-04-06T02:30:51.756Z,27.70
2023-04-06T02:33:18.772Z,28.10
2023-04-06T02:35:47.029Z,27.80
2023-04-06T02:38:14.048Z,27.80
2023-04-06T02:40:41.539Z,28.30
2023-04-06T02:43:08.500Z,27.60
2023-04-06T02:45:35.459Z,27.30
2023-04-06T02:48:02.517Z,27.60
2023-04-06T02:50:29.551Z,27.60
2023-04-06T02:52:56.540Z,26.90
2023-04-06T02:55:23.621Z,26.70
2023-04-06T02:57:50.940Z,26.80
2023-04-06T03:00:18.229Z,27.60
2023-04-06T03:02:45.518Z,27.60
2023-04-06T03:05:12.645Z,28.20
2023-04-06T03:07:39.821Z,27.80
2023-04-06T03:10:07.256Z,27.60
2023-04-06T03:12:34.235Z,27.80
2023-04-06T03:15:01.192Z,27.90
2023-04-06T03:17:28.255Z,27.80
2023-04-06T03:19:55.931Z,27.80
2023-04-06T03:22:23.250Z,28.10
2023-04-06T03:24:50.453Z,28.00
2023-04-06T03:27:17.436Z,28.50
2023-04-06T03:29:44.726Z,28.90
2023-04-06T03:32:11.798Z,29.30
2023-04-06T03:34:40.081Z,29.40
2023-04-06T03:37:09.929Z,28.90
2023-04-06T03:39:38.280Z,28.40
2023-04-06T03:42:05.479Z,28.50
2023-04-06T03:44:32.985Z,28.70
2023-04-06T03:47:00.076Z,28.80
2023-04-06T03:49:27.192Z,28.90
2023-04-06T03:51:54.570Z,29.10
2023-04-06T03:54:22.693Z,29.10
2023-04-06T03:56:49.739Z,28.60
2023-04-06T03:59:17.155Z,28.10
2023-04-06T04:01:44.228Z,28.20
2023-04-06T04:04:11.797Z,28.70
2023-04-06T04:06:38.973Z,28.80
2023-04-06T04:09:06.067Z,28.70
2023-04-06T04:11:33.149Z,27.00
2023-04-06T04:14:00.362Z,27.00
2023-04-06T04:16:27.399Z,27.00
2023-04-06T04:18:54.571Z,27.20
2023-04-06T04:21:21.763Z,27.30
2023-04-06T04:23:48.801Z,28.10
2023-04-06T04:26:15.977Z,28.10
2023-04-06T04:28:43.006Z,27.80
2023-04-06T04:31:10.076Z,27.70
2023-04-06T04:33:37.601Z,27.60
2023-04-06T04:36:04.999Z,28.10
2023-04-06T04:38:33.803Z,27.70
2023-04-06T04:41:00.968Z,28.20
2023-04-06T04:43:27.986Z,28.50
2023-04-06T04:45:55.272Z,27.90
2023-04-06T04:48:22.319Z,28.00
2023-04-06T04:50:49.347Z,28.70
2023-04-06T04:53:16.342Z,29.30
2023-04-06T04:55:43.390Z,29.60
2023-04-06T04:58:12.142Z,30.00
2023-04-06T05:00:39.172Z,30.40
2023-04-06T05:03:06.722Z,30.10
2023-04-06T05:05:33.813Z,29.50
2023-04-06T05:08:00.846Z,27.10
2023-04-06T05:10:27.959Z,27.40
2023-04-06T05:12:54.994Z,28.60
2023-04-06T05:15:22.399Z,27.90
2023-04-06T05:17:49.492Z,28.80
2023-04-06T05:20:17.200Z,28.40
2023-04-06T05:22:44.216Z,28.30
2023-04-06T05:25:11.272Z,28.60
2023-04-06T05:27:38.345Z,28.80
2023-04-06T05:30:06.172Z,28.70
2023-04-06T05:32:33.605Z,28.70
2023-04-06T05:35:01.142Z,28.50
2023-04-06T05:37:28.217Z,29.40
2023-04-06T05:39:55.547Z,29.40
2023-04-06T05:42:24.206Z,29.10
2023-04-06T05:44:51.173Z,29.00
2023-04-06T05:47:18.916Z,28.00
2023-04-06T05:49:46.189Z,28.90
2023-04-06T05:52:13.532Z,28.60
2023-04-06T05:54:40.549Z,29.10
2023-04-06T05:57:07.616Z,28.80
2023-04-06T05:59:34.702Z,27.20
2023-04-06T06:02:02.621Z,28.10
2023-04-06T06:04:30.476Z,28.70
2023-04-06T06:06:57.754Z,29.70
2023-04-06T06:09:24.774Z,30.30
2023-04-06T06:11:52.318Z,30.80
2023-04-06T06:14:19.616Z,30.10
2023-04-06T06:16:46.871Z,31.10
2023-04-06T06:19:13.930Z,31.60
2023-04-06T06:21:41.136Z,30.90
2023-04-06T06:24:09.314Z,31.10
2023-04-06T06:26:40.564Z,31.80
2023-04-06T06:29:08.532Z,31.20
2023-04-06T06:31:36.396Z,31.10
2023-04-06T06:34:03.865Z,32.30
2023-04-06T06:36:32.788Z,32.90
2023-04-06T06:39:00.958Z,32.20
2023-04-06T06:41:28.230Z,32.40
2023-04-06T06:43:55.481Z,33.10
2023-04-06T06:46:22.995Z,33.70
2023-04-06T06:48:50.280Z,33.60
2023-04-06T06:51:17.280Z,30.90
2023-04-06T06:53:44.394Z,32.30
2023-04-06T06:56:11.607Z,32.40
2023-04-06T06:58:38.663Z,32.90
2023-04-06T07:01:06.424Z,33.80
2023-04-06T07:03:33.574Z,34.10
2023-04-06T07:06:00.668Z,34.60
2023-04-06T07:08:27.730Z,35.20
2023-04-06T07:10:57.569Z,34.80
2023-04-06T07:13:25.196Z,34.90
2023-04-06T07:15:52.759Z,34.90
2023-04-06T07:18:20.876Z,34.60
2023-04-06T07:20:48.343Z,34.10
2023-04-06T07:23:16.105Z,34.00
2023-04-06T07:25:44.268Z,34.70
2023-04-06T07:28:13.472Z,35.20
2023-04-06T07:30:42.138Z,35.50
2023-04-06T07:33:09.345Z,35.40
2023-04-06T07:35:37.799Z,36.00
2023-04-06T07:38:05.064Z,36.30
2023-04-06T07:40:33.787Z,36.50
2023-04-06T07:43:01.222Z,35.20
2023-04-06T07:45:29.518Z,35.50
2023-04-06T07:47:56.886Z,36.30
2023-04-06T07:50:24.143Z,36.00
2023-04-06T07:52:51.477Z,36.90
2023-04-06T07:55:18.447Z,37.10
2023-04-06T07:57:45.526Z,37.50
2023-04-06T08:00:13.091Z,36.40
2023-04-06T08:02:40.796Z,36.30
2023-04-06T08:05:08.493Z,36.40
2023-04-06T08:07:36.699Z,35.10
2023-04-06T08:10:04.256Z,35.60
2023-04-06T08:12:31.432Z,36.60
2023-04-06T08:14:58.393Z,36.20
2023-04-06T08:17:25.432Z,36.80
2023-04-06T08:19:52.544Z,36.70
2023-04-06T08:22:19.821Z,37.30
2023-04-06T08:24:46.847Z,37.40
2023-04-06T08:27:15.893Z,37.80
2023-04-06T08:29:42.974Z,37.40
2023-04-06T08:32:09.951Z,37.80
2023-04-06T08:34:37.434Z,37.50
2023-04-06T08:37:04.896Z,37.30
2023-04-06T08:39:32.293Z,37.80
2023-04-06T08:42:01.116Z,38.60
2023-04-06T08:44:28.359Z,38.90
2023-04-06T08:46:56.165Z,38.20
2023-04-06T08:49:23.818Z,37.10
2023-04-06T08:51:51.663Z,37.00
2023-04-06T08:54:18.755Z,38.30
2023-04-06T08:56:46.235Z,38.80
2023-04-06T08:59:13.924Z,39.30
2023-04-06T09:01:43.669Z,39.30
2023-04-06T09:04:12.697Z,39.20
2023-04-06T09:06:41.764Z,39.80
2023-04-06T09:09:09.263Z,39.40
2023-04-06T09:11:52.289Z,39.50
2023-04-06T09:14:41.885Z,40.80
2023-04-06T09:17:09.026Z,40.10
2023-04-06T09:19:47.270Z,39.30
2023-04-06T09:22:14.487Z,39.70
2023-04-06T09:24:45.307Z,39.20
2023-04-06T09:27:12.580Z,40.60
2023-04-06T09:29:39.682Z,41.50
2023-04-06T09:32:08.390Z,41.00
2023-04-06T09:34:36.033Z,41.00
2023-04-06T09:37:14.115Z,38.40
2023-04-06T09:39:41.358Z,37.60
2023-04-06T09:42:08.529Z,38.40
2023-04-06T09:44:35.591Z,39.50
2023-04-06T09:47:06.444Z,40.80
2023-04-06T09:49:36.415Z,38.70
2023-04-06T09:52:07.892Z,40.30
2023-04-06T09:54:37.502Z,40.60
2023-04-06T09:57:23.388Z,41.10
2023-04-06T10:00:11.799Z,41.00
2023-04-06T10:03:01.034Z,40.20
2023-04-06T10:06:01.757Z,39.90
2023-04-06T10:08:32.828Z,39.80
2023-04-06T10:11:01.877Z,39.30
2023-04-06T10:13:29.230Z,38.80
2023-04-06T10:15:58.515Z,39.40
2023-04-06T10:18:25.847Z,38.50
2023-04-06T10:20:57.579Z,38.10
2023-04-06T10:23:53.517Z,36.70
2023-04-06T10:26:23.505Z,36.30
2023-04-06T10:28:51.611Z,36.70
2023-04-06T10:31:28.964Z,37.80
2023-04-06T10:34:01.742Z,38.00
2023-04-06T10:36:33.354Z,36.90
2023-04-06T10:39:05.232Z,36.40
2023-04-06T10:41:44.124Z,36.00
2023-04-06T10:44:21.884Z,35.60
2023-04-06T10:46:57.792Z,35.80
2023-04-06T10:49:27.479Z,34.90
2023-04-06T10:51:58.751Z,36.60
2023-04-06T10:54:26.711Z,37.30
2023-04-06T10:56:53.894Z,37.60
2023-04-06T10:59:22.941Z,38.00
2023-04-06T11:01:50.612Z,38.30
2023-04-06T11:04:22.095Z,36.50
2023-04-06T11:06:51.198Z,38.10
2023-04-06T11:09:30.194Z,38.70
2023-04-06T11:11:58.075Z,39.00
2023-04-06T11:14:25.315Z,38.00
2023-04-06T11:16:52.556Z,37.10
2023-04-06T11:19:19.903Z,34.70
2023-04-06T11:21:49.017Z,33.30
2023-04-06T11:24:23.835Z,35.70
2023-04-06T11:26:59.155Z,36.70
2023-04-06T11:29:31.811Z,34.90
2023-04-06T11:32:05.502Z,35.90
2023-04-06T11:34:38.089Z,36.90
2023-04-06T11:37:09.320Z,36.90
2023-04-06T11:39:52.960Z,38.50
2023-04-06T11:42:30.691Z,37.90
2023-04-06T11:44:59.004Z,38.50
2023-04-06T11:47:38.605Z,38.90
2023-04-06T11:50:10.939Z,40.00
2023-04-06T11:52:39.201Z,39.60
2023-04-06T11:55:17.412Z,41.10
2023-04-06T11:57:45.150Z,41.30
2023-04-06T12:00:13.387Z,42.50
2023-04-06T12:02:41.403Z,43.10
2023-04-06T12:05:09.540Z,43.10
2023-04-06T12:07:37.266Z,41.00
2023-04-06T12:10:06.171Z,41.50
2023-04-06T12:12:33.346Z,41.30
2023-04-06T12:15:00.952Z,41.00
2023-04-06T12:17:28.877Z,40.70
2023-04-06T12:20:01.869Z,41.50
2023-04-06T12:22:32.185Z,41.00
2023-04-06T12:24:59.398Z,40.80
2023-04-06T12:27:26.763Z,41.20
2023-04-06T12:29:53.871Z,41.00
2023-04-06T12:32:22.156Z,41.70
2023-04-06T12:34:49.392Z,42.50
2023-04-06T12:37:16.713Z,41.90
2023-04-06T12:39:45.734Z,41.90
2023-04-06T12:42:13.770Z,41.90
2023-04-06T12:44:41.193Z,43.00
2023-04-06T12:47:08.773Z,43.70
2023-04-06T12:49:36.459Z,44.20
2023-04-06T12:52:04.090Z,43.20
2023-04-06T12:54:31.262Z,43.10
2023-04-06T12:56:58.830Z,42.20
2023-04-06T12:59:26.734Z,41.80
2023-04-06T13:01:54.237Z,40.40
2023-04-06T13:04:21.290Z,41.30
2023-04-06T13:06:50.411Z,41.60
2023-04-06T13:09:17.508Z,40.10
2023-04-06T13:11:44.531Z,39.40
2023-04-06T13:14:11.681Z,38.30
2023-04-06T13:16:38.803Z,36.60
2023-04-06T13:19:06.468Z,35.60
2023-04-06T13:21:33.538Z,36.10
2023-04-06T13:24:01.052Z,37.00
2023-04-06T13:26:28.466Z,36.20
2023-04-06T13:28:58.001Z,34.70
2023-04-06T13:31:25.028Z,36.40
2023-04-06T13:33:52.165Z,36.70
2023-04-06T13:36:19.265Z,37.50
2023-04-06T13:38:46.475Z,38.30
2023-04-06T13:41:22.037Z,39.70
2023-04-06T13:43:49.517Z,40.70
2023-04-06T13:46:16.723Z,40.20
2023-04-06T13:48:44.844Z,40.10
2023-04-06T13:51:16.381Z,38.70
2023-04-06T13:53:43.510Z,39.30
2023-04-06T13:56:10.712Z,39.80
2023-04-06T13:58:38.000Z,39.70
2023-04-06T14:01:11.234Z,38.90
2023-04-06T14:03:40.716Z,38.30
2023-04-06T14:06:26.982Z,37.20
2023-04-06T14:08:58.129Z,36.50
2023-04-06T14:11:25.444Z,35.80
2023-04-06T14:13:53.287Z,36.80
2023-04-06T14:16:21.750Z,36.20
2023-04-06T14:18:49.298Z,35.70
2023-04-06T14:21:16.649Z,35.20
2023-04-06T14:23:44.035Z,35.70
2023-04-06T14:26:11.323Z,35.60
2023-04-06T14:28:39.252Z,36.40
2023-04-06T14:31:14.780Z,36.80
2023-04-06T14:33:42.740Z,37.00
2023-04-06T14:36:11.259Z,37.20
2023-04-06T14:38:39.456Z,37.90
2023-04-06T14:41:06.747Z,38.40
2023-04-06T14:43:33.903Z,39.80
2023-04-06T14:46:02.301Z,40.50
2023-04-06T14:48:29.989Z,40.90
2023-04-06T14:50:57.651Z,41.30
2023-04-06T14:53:25.555Z,41.60
2023-04-06T14:55:52.660Z,41.40
2023-04-06T14:58:20.963Z,41.50
2023-04-06T15:00:47.998Z,38.60
2023-04-06T15:03:15.368Z,34.80
2023-04-06T15:05:42.845Z,35.00
2023-04-06T15:08:14.818Z,35.30
2023-04-06T15:10:42.159Z,36.60
2023-04-06T15:13:09.385Z,37.70
2023-04-06T15:15:36.670Z,37.70
2023-04-06T15:18:03.838Z,38.20
2023-04-06T15:20:31.745Z,37.40
2023-04-06T15:22:58.973Z,37.30
2023-04-06T15:25:26.751Z,37.20
2023-04-06T15:27:54.771Z,37.10
2023-04-06T15:30:22.090Z,36.70
2023-04-06T15:32:59.497Z,36.30
2023-04-06T15:35:26.620Z,34.90
2023-04-06T15:37:53.771Z,35.40
2023-04-06T15:40:22.406Z,35.20
2023-04-06T15:42:49.469Z,35.10
2023-04-06T15:45:16.977Z,34.70
2023-04-06T15:47:45.601Z,33.90
2023-04-06T15:50:13.358Z,34.00
2023-04-06T15:52:41.297Z,32.60
2023-04-06T15:55:09.752Z,31.00
2023-04-06T15:57:37.124Z,31.20
2023-04-06T16:00:05.089Z,31.10
2023-04-06T16:02:32.563Z,31.10
2023-04-06T16:05:04.192Z,32.00
2023-04-06T16:07:32.570Z,31.60
2023-04-06T16:09:59.630Z,31.50
2023-04-06T16:12:27.876Z,31.90
2023-04-06T16:14:57.146Z,31.60
2023-04-06T16:17:24.214Z,31.90
2023-04-06T16:19:51.624Z,32.30
2023-04-06T16:22:18.803Z,32.70
2023-04-06T16:24:45.854Z,31.80
2023-04-06T16:27:13.422Z,32.30
2023-04-06T16:29:40.570Z,32.00
2023-04-06T16:32:07.811Z,31.50
2023-04-06T16:34:37.716Z,31.00
2023-04-06T16:37:04.729Z,30.30
2023-04-06T16:39:32.042Z,30.20
2023-04-06T16:41:59.743Z,30.30
2023-04-06T16:44:29.088Z,30.50
2023-04-06T16:46:56.581Z,30.60
2023-04-06T16:49:24.449Z,31.40
2023-04-06T16:51:52.874Z,30.50
2023-04-06T16:54:20.079Z,31.40
2023-04-06T16:56:47.283Z,31.90
2023-04-06T16:59:14.282Z,32.10
2023-04-06T17:01:41.965Z,32.60
2023-04-06T17:04:09.448Z,32.40
2023-04-06T17:06:36.624Z,32.70
2023-04-06T17:09:03.757Z,32.60
2023-04-06T17:11:43.824Z,32.70
2023-04-06T17:14:14.385Z,32.80
2023-04-06T17:16:41.703Z,33.10
2023-04-06T17:19:11.402Z,32.80
2023-04-06T17:21:41.747Z,32.60
2023-04-06T17:24:09.596Z,32.70
2023-04-06T17:26:36.606Z,33.00
2023-04-06T17:29:03.709Z,33.10
2023-04-06T17:31:32.447Z,33.10
2023-04-06T17:34:00.397Z,33.20
2023-04-06T17:36:28.604Z,33.50
2023-04-06T17:38:55.782Z,33.60
2023-04-06T17:41:23.177Z,33.70
2023-04-06T17:43:52.078Z,33.30
2023-04-06T17:46:20.758Z,33.60
2023-04-06T17:48:48.762Z,33.30
2023-04-06T17:51:19.106Z,33.40
2023-04-06T17:53:46.814Z,33.50
2023-04-06T17:56:14.239Z,33.40
2023-04-06T17:58:41.622Z,33.50
2023-04-06T18:01:11.486Z,33.60
2023-04-06T18:03:38.963Z,33.70
2023-04-06T18:06:16.866Z,33.70
2023-04-06T18:08:46.605Z,33.70
2023-04-06T18:11:21.916Z,33.70
2023-04-06T18:13:49.352Z,33.80
2023-04-06T18:16:22.768Z,33.80
2023-04-06T18:18:50.170Z,33.40
2023-04-06T18:21:17.615Z,32.70
2023-04-06T18:23:44.687Z,32.60
2023-04-06T18:26:19.229Z,32.50
2023-04-06T18:28:49.397Z,33.00
2023-04-06T18:31:16.766Z,33.10
2023-04-06T18:33:44.508Z,33.20
2023-04-06T18:36:12.076Z,33.30
2023-04-06T18:38:48.276Z,33.10
2023-04-06T18:41:17.215Z,32.80
2023-04-06T18:43:44.287Z,32.80
2023-04-06T18:46:13.609Z,32.70
2023-04-06T18:48:41.584Z,32.80
2023-04-06T18:51:09.082Z,32.90
2023-04-06T18:53:38.560Z,32.80
2023-04-06T18:56:14.704Z,32.70
2023-04-06T18:58:42.689Z,32.60
2023-04-06T19:01:09.786Z,32.60
2023-04-06T19:03:37.824Z,32.50
2023-04-06T19:06:07.643Z,32.70
2023-04-06T19:08:34.720Z,32.70
2023-04-06T19:11:11.060Z,32.70
2023-04-06T19:13:39.158Z,32.80
2023-04-06T19:16:10.705Z,32.70
2023-04-06T19:18:42.651Z,32.80
2023-04-06T19:21:16.908Z,32.70
2023-04-06T19:23:48.822Z,32.70
2023-04-06T19:26:18.046Z,32.50
2023-04-06T19:28:46.291Z,32.50
2023-04-06T19:31:15.850Z,32.40
2023-04-06T19:33:43.799Z,32.50
2023-04-06T19:36:11.389Z,32.20
2023-04-06T19:38:39.066Z,32.40
2023-04-06T19:41:06.880Z,32.40
2023-04-06T19:43:33.984Z,32.40
2023-04-06T19:46:01.060Z,32.10
2023-04-06T19:48:28.439Z,32.20
2023-04-06T19:50:55.821Z,32.40
2023-04-06T19:53:23.195Z,32.20
2023-04-06T19:55:50.924Z,32.20
2023-04-06T19:58:18.076Z,32.30
2023-04-06T20:00:45.112Z,32.40
2023-04-06T20:03:12.346Z,32.50
2023-04-06T20:05:40.135Z,32.50
2023-04-06T20:08:07.242Z,32.20
2023-04-06T20:10:34.392Z,32.10
2023-04-06T20:13:01.627Z,32.20
2023-04-06T20:15:29.851Z,32.30
2023-04-06T20:17:57.266Z,32.20
2023-04-06T20:20:24.462Z,32.20
2023-04-06T20:22:51.445Z,32.00
2023-04-06T20:25:19.826Z,32.00
2023-04-06T20:27:47.509Z,32.00
2023-04-06T20:30:15.872Z,31.80
2023-04-06T20:32:43.045Z,31.50
2023-04-06T20:35:10.398Z,30.70
2023-04-06T20:37:37.946Z,31.30
2023-04-06T20:40:06.042Z,31.70
2023-04-06T20:42:33.179Z,31.70
2023-04-06T20:45:01.870Z,31.90
2023-04-06T20:47:28.897Z,31.40
2023-04-06T20:49:56.487Z,31.50
2023-04-06T20:52:23.822Z,31.80
2023-04-06T20:54:51.098Z,31.50
2023-04-06T20:57:18.622Z,31.50
2023-04-06T20:59:45.714Z,31.30
2023-04-06T21:02:12.972Z,31.30
2023-04-06T21:04:40.914Z,31.50
2023-04-06T21:07:08.052Z,31.40
2023-04-06T21:09:40.209Z,31.30
2023-04-06T21:12:07.699Z,31.50
2023-04-06T21:14:35.450Z,31.60
2023-04-06T21:17:02.678Z,31.50
2023-04-06T21:19:29.972Z,30.70
2023-04-06T21:21:56.996Z,30.90
2023-04-06T21:24:23.981Z,31.30
2023-04-06T21:26:51.085Z,31.60
2023-04-06T21:29:18.180Z,31.70
2023-04-06T21:31:45.536Z,31.70
2023-04-06T21:34:13.306Z,31.70
2023-04-06T21:36:41.487Z,31.70
2023-04-06T21:39:09.221Z,31.70
2023-04-06T21:41:36.721Z,31.70
2023-04-06T21:44:03.833Z,31.70
2023-04-06T21:46:31.092Z,31.60
2023-04-06T21:48:58.430Z,31.50
2023-04-06T21:51:25.687Z,31.40
2023-04-06T21:53:53.638Z,31.30
2023-04-06T21:56:22.530Z,31.40
2023-04-06T21:58:50.166Z,31.40
2023-04-06T22:01:17.821Z,31.50
2023-04-06T22:03:45.691Z,31.50
2023-04-06T22:06:13.195Z,31.60
2023-04-06T22:08:40.252Z,31.70
2023-04-06T22:11:09.537Z,31.70
2023-04-06T22:13:36.715Z,31.80
2023-04-06T22:16:04.709Z,31.60
2023-04-06T22:18:36.615Z,31.60
2023-04-06T22:21:05.850Z,31.70
2023-04-06T22:23:33.110Z,31.70
2023-04-06T22:26:00.591Z,31.80
2023-04-06T22:28:27.663Z,31.90
2023-04-06T22:30:54.650Z,32.00
2023-04-06T22:33:21.839Z,32.10
2023-04-06T22:35:48.906Z,32.20
2023-04-06T22:38:16.186Z,32.20
2023-04-06T22:40:43.202Z,32.10
2023-04-06T22:43:10.288Z,32.20
2023-04-06T22:45:37.307Z,32.20
2023-04-06T22:48:04.452Z,32.30
2023-04-06T22:50:31.808Z,32.30
2023-04-06T22:52:58.889Z,32.40
2023-04-06T22:55:26.192Z,32.10
2023-04-06T22:57:53.257Z,32.00
2023-04-06T23:00:20.492Z,31.90
2023-04-06T23:02:47.748Z,31.90
2023-04-06T23:05:14.789Z,31.60
2023-04-06T23:07:41.755Z,31.60
2023-04-06T23:10:09.305Z,31.70
2023-04-06T23:12:36.293Z,31.90
2023-04-06T23:15:03.353Z,31.90
2023-04-06T23:17:30.545Z,31.70
2023-04-06T23:19:57.590Z,31.90
2023-04-06T23:22:24.687Z,31.70
2023-04-06T23:24:51.629Z,31.70
2023-04-06T23:27:18.664Z,31.30
2023-04-06T23:29:45.724Z,31.40
2023-04-06T23:32:12.778Z,31.40
2023-04-06T23:34:39.885Z,31.60
2023-04-06T23:37:06.813Z,31.80
2023-04-06T23:39:33.812Z,32.10
2023-04-06T23:42:02.119Z,32.20
2023-04-06T23:44:32.164Z,31.60
2023-04-06T23:46:59.269Z,32.10
2023-04-06T23:49:26.259Z,32.20
2023-04-06T23:51:53.229Z,32.30
2023-04-06T23:54:20.272Z,32.50
2023-04-06T23:56:47.384Z,32.20
2023-04-06T23:59:14.642Z,32.30
